sensor_id;sensor_type;location;lat;lon;timestamp;temperature;humidity
7564;DHT22;3823;53.586;10.040;2023-09-30T00:00:59;15.50;99.90
7564;DHT22;3823;53.586;10.040;2023-09-30T00:03:24;15.40;99.90
7564;DHT22;3823;53.586;10.040;2023-09-30T00:05:50;15.40;99.90
7564;DHT22;3823;53.586;10.040;2023-09-30T00:08:16;15.40;99.90
7564;DHT22;3823;53.586;10.040;2023-09-30T00:10:41;15.40;99.90
7564;DHT22;3823;53.586;10.040;2023-09-30T00:13:07;15.30;99.90
7564;DHT22;3823;53.586;10.040;2023-09-30T00:15:33;15.30;99.90
7564;DHT22;3823;53.586;10.040;2023-09-30T00:17:59;15.20;99.90
7564;DHT22;3823;53.586;10.040;2023-09-30T00:20:25;15.20;99.90
7564;DHT22;3823;53.586;10.040;2023-09-30T00:22:50;15.20;99.90
7564;DHT22;3823;53.586;10.040;2023-09-30T00:25:16;15.20;99.90
7564;DHT22;3823;53.586;10.040;2023-09-30T00:27:42;15.20;99.90
7564;DHT22;3823;53.586;10.040;2023-09-30T00:30:07;15.20;99.90
7564;DHT22;3823;53.586;10.040;2023-09-30T00:32:33;15.20;99.90
7564;DHT22;3823;53.586;10.040;2023-09-30T00:35:01;15.20;99.90
7564;DHT22;3823;53.586;10.040;2023-09-30T00:37:27;15.20;99.90
7564;DHT22;3823;53.586;10.040;2023-09-30T00:39:53;15.20;99.90
7564;DHT22;3823;53.586;10.040;2023-09-30T00:42:19;15.20;99.90
7564;DHT22;3823;53.586;10.040;2023-09-30T00:44:46;15.20;99.90
7564;DHT22;3823;53.586;10.040;2023-09-30T00:47:13;15.10;99.90
7564;DHT22;3823;53.586;10.040;2023-09-30T00:49:40;15.10;99.90
7564;DHT22;3823;53.586;10.040;2023-09-30T00:52:07;15.10;99.90
7564;DHT22;3823;53.586;10.040;2023-09-30T00:54:33;15.20;99.90
7564;DHT22;3823;53.586;10.040;2023-09-30T00:57:00;15.20;99.90
7564;DHT22;3823;53.586;10.040;2023-09-30T00:59:30;15.10;99.90
7564;DHT22;3823;53.586;10.040;2023-09-30T01:01:58;15.10;99.90
7564;DHT22;3823;53.586;10.040;2023-09-30T01:04:26;15.10;99.90
7564;DHT22;3823;53.586;10.040;2023-09-30T01:06:52;15.00;99.90
7564;DHT22;3823;53.586;10.040;2023-09-30T01:09:18;15.00;99.90
7564;DHT22;3823;53.586;10.040;2023-09-30T01:11:44;15.10;99.90
7564;DHT22;3823;53.586;10.040;2023-09-30T01:16:51;15.00;99.90
7564;DHT22;3823;53.586;10.040;2023-09-30T01:19:17;15.00;99.90
7564;DHT22;3823;53.586;10.040;2023-09-30T01:21:42;15.00;99.90
7564;DHT22;3823;53.586;10.040;2023-09-30T01:24:10;15.00;99.90
7564;DHT22;3823;53.586;10.040;2023-09-30T01:26:36;15.00;99.90
7564;DHT22;3823;53.586;10.040;2023-09-30T01:29:01;14.90;99.90
7564;DHT22;3823;53.586;10.040;2023-09-30T01:31:27;14.90;99.90
7564;DHT22;3823;53.586;10.040;2023-09-30T01:33:52;14.90;99.90
7564;DHT22;3823;53.586;10.040;2023-09-30T01:36:19;14.90;99.90
7564;DHT22;3823;53.586;10.040;2023-09-30T01:38:45;14.90;99.90
7564;DHT22;3823;53.586;10.040;2023-09-30T01:41:11;14.80;99.90
7564;DHT22;3823;53.586;10.040;2023-09-30T01:43:36;14.80;99.90
7564;DHT22;3823;53.586;10.040;2023-09-30T01:46:03;14.80;99.90
7564;DHT22;3823;53.586;10.040;2023-09-30T01:48:30;14.80;99.90
7564;DHT22;3823;53.586;10.040;2023-09-30T01:50:56;14.80;99.90
7564;DHT22;3823;53.586;10.040;2023-09-30T01:53:21;14.70;99.90
7564;DHT22;3823;53.586;10.040;2023-09-30T01:55:47;14.70;99.90
7564;DHT22;3823;53.586;10.040;2023-09-30T01:58:13;14.60;99.90
7564;DHT22;3823;53.586;10.040;2023-09-30T02:00:38;14.60;99.90
7564;DHT22;3823;53.586;10.040;2023-09-30T02:03:05;14.70;99.90
7564;DHT22;3823;53.586;10.040;2023-09-30T02:05:30;14.70;99.90
7564;DHT22;3823;53.586;10.040;2023-09-30T02:07:56;14.70;99.90
7564;DHT22;3823;53.586;10.040;2023-09-30T02:10:21;14.80;99.90
7564;DHT22;3823;53.586;10.040;2023-09-30T02:12:47;14.70;99.90
7564;DHT22;3823;53.586;10.040;2023-09-30T02:15:13;14.70;99.90
7564;DHT22;3823;53.586;10.040;2023-09-30T02:17:39;14.60;99.90
7564;DHT22;3823;53.586;10.040;2023-09-30T02:20:06;14.50;99.90
7564;DHT22;3823;53.586;10.040;2023-09-30T02:22:38;14.50;1.00
7564;DHT22;3823;53.586;10.040;2023-09-30T02:25:05;14.50;99.90
7564;DHT22;3823;53.586;10.040;2023-09-30T02:27:32;14.50;99.90
7564;DHT22;3823;53.586;10.040;2023-09-30T02:29:58;14.60;99.90
7564;DHT22;3823;53.586;10.040;2023-09-30T02:32:24;14.60;99.90
7564;DHT22;3823;53.586;10.040;2023-09-30T02:34:49;14.60;99.90
7564;DHT22;3823;53.586;10.040;2023-09-30T02:37:16;14.50;99.90
7564;DHT22;3823;53.586;10.040;2023-09-30T02:39:42;14.40;1.00
7564;DHT22;3823;53.586;10.040;2023-09-30T02:42:08;14.50;99.90
7564;DHT22;3823;53.586;10.040;2023-09-30T02:44:34;14.40;1.00
7564;DHT22;3823;53.586;10.040;2023-09-30T02:46:59;14.40;1.00
7564;DHT22;3823;53.586;10.040;2023-09-30T02:49:25;14.30;1.00
7564;DHT22;3823;53.586;10.040;2023-09-30T02:51:51;14.40;1.00
7564;DHT22;3823;53.586;10.040;2023-09-30T02:54:17;14.40;1.00
7564;DHT22;3823;53.586;10.040;2023-09-30T02:56:42;14.30;1.00
7564;DHT22;3823;53.586;10.040;2023-09-30T02:59:08;14.30;1.00
7564;DHT22;3823;53.586;10.040;2023-09-30T03:01:34;14.30;1.00
7564;DHT22;3823;53.586;10.040;2023-09-30T03:03:59;14.30;1.00
7564;DHT22;3823;53.586;10.040;2023-09-30T03:06:25;14.20;1.00
7564;DHT22;3823;53.586;10.040;2023-09-30T03:08:51;14.40;1.00
7564;DHT22;3823;53.586;10.040;2023-09-30T03:11:17;14.20;1.00
7564;DHT22;3823;53.586;10.040;2023-09-30T03:13:45;14.20;1.00
7564;DHT22;3823;53.586;10.040;2023-09-30T03:16:11;14.20;1.00
7564;DHT22;3823;53.586;10.040;2023-09-30T03:18:37;14.20;1.00
7564;DHT22;3823;53.586;10.040;2023-09-30T03:21:02;14.20;1.00
7564;DHT22;3823;53.586;10.040;2023-09-30T03:23:34;14.20;1.00
7564;DHT22;3823;53.586;10.040;2023-09-30T03:26:00;14.20;1.00
7564;DHT22;3823;53.586;10.040;2023-09-30T03:28:26;14.20;1.00
7564;DHT22;3823;53.586;10.040;2023-09-30T03:30:52;14.20;1.00
7564;DHT22;3823;53.586;10.040;2023-09-30T03:33:18;14.20;1.00
7564;DHT22;3823;53.586;10.040;2023-09-30T03:35:44;14.20;1.00
7564;DHT22;3823;53.586;10.040;2023-09-30T03:38:10;14.20;1.00
7564;DHT22;3823;53.586;10.040;2023-09-30T03:40:36;14.20;1.00
7564;DHT22;3823;53.586;10.040;2023-09-30T03:43:04;14.20;1.00
7564;DHT22;3823;53.586;10.040;2023-09-30T03:45:31;14.20;1.00
7564;DHT22;3823;53.586;10.040;2023-09-30T03:47:58;14.20;1.00
7564;DHT22;3823;53.586;10.040;2023-09-30T03:50:23;14.10;1.00
7564;DHT22;3823;53.586;10.040;2023-09-30T03:52:50;14.00;1.00
7564;DHT22;3823;53.586;10.040;2023-09-30T03:55:16;14.00;1.00
7564;DHT22;3823;53.586;10.040;2023-09-30T03:57:43;14.10;1.00
7564;DHT22;3823;53.586;10.040;2023-09-30T04:00:13;14.00;1.00
7564;DHT22;3823;53.586;10.040;2023-09-30T04:02:42;14.10;1.00
7564;DHT22;3823;53.586;10.040;2023-09-30T04:05:09;14.10;1.00
7564;DHT22;3823;53.586;10.040;2023-09-30T04:07:37;14.10;1.00
7564;DHT22;3823;53.586;10.040;2023-09-30T04:10:03;14.10;1.00
7564;DHT22;3823;53.586;10.040;2023-09-30T04:12:29;14.00;1.00
7564;DHT22;3823;53.586;10.040;2023-09-30T04:14:58;14.00;1.00
7564;DHT22;3823;53.586;10.040;2023-09-30T04:17:23;14.10;1.00
7564;DHT22;3823;53.586;10.040;2023-09-30T04:19:49;14.10;1.00
7564;DHT22;3823;53.586;10.040;2023-09-30T04:22:17;14.00;1.00
7564;DHT22;3823;53.586;10.040;2023-09-30T04:24:43;14.00;1.00
7564;DHT22;3823;53.586;10.040;2023-09-30T04:27:08;14.00;1.00
7564;DHT22;3823;53.586;10.040;2023-09-30T04:29:34;14.10;1.00
7564;DHT22;3823;53.586;10.040;2023-09-30T04:32:00;14.10;1.00
7564;DHT22;3823;53.586;10.040;2023-09-30T04:34:26;14.10;1.00
7564;DHT22;3823;53.586;10.040;2023-09-30T04:36:53;14.10;1.00
7564;DHT22;3823;53.586;10.040;2023-09-30T04:39:19;14.00;1.00
7564;DHT22;3823;53.586;10.040;2023-09-30T04:41:45;14.00;1.00
7564;DHT22;3823;53.586;10.040;2023-09-30T04:44:12;14.00;1.00
7564;DHT22;3823;53.586;10.040;2023-09-30T04:46:37;14.00;1.00
7564;DHT22;3823;53.586;10.040;2023-09-30T04:49:09;14.10;1.00
7564;DHT22;3823;53.586;10.040;2023-09-30T04:51:35;14.00;1.00
7564;DHT22;3823;53.586;10.040;2023-09-30T04:54:01;14.00;1.00
7564;DHT22;3823;53.586;10.040;2023-09-30T04:56:27;14.00;1.00
7564;DHT22;3823;53.586;10.040;2023-09-30T04:58:53;14.10;1.00
7564;DHT22;3823;53.586;10.040;2023-09-30T05:01:18;14.10;1.00
7564;DHT22;3823;53.586;10.040;2023-09-30T05:03:45;14.00;1.00
7564;DHT22;3823;53.586;10.040;2023-09-30T05:06:14;14.00;1.00
7564;DHT22;3823;53.586;10.040;2023-09-30T05:08:39;14.00;1.00
7564;DHT22;3823;53.586;10.040;2023-09-30T05:11:05;14.00;1.00
7564;DHT22;3823;53.586;10.040;2023-09-30T05:13:30;14.00;1.00
7564;DHT22;3823;53.586;10.040;2023-09-30T05:15:56;14.00;1.00
7564;DHT22;3823;53.586;10.040;2023-09-30T05:18:22;14.10;1.00
7564;DHT22;3823;53.586;10.040;2023-09-30T05:20:49;14.10;1.00
7564;DHT22;3823;53.586;10.040;2023-09-30T05:23:15;14.10;1.00
7564;DHT22;3823;53.586;10.040;2023-09-30T05:25:41;14.10;1.00
7564;DHT22;3823;53.586;10.040;2023-09-30T05:28:08;14.10;1.00
7564;DHT22;3823;53.586;10.040;2023-09-30T05:30:34;14.00;1.00
7564;DHT22;3823;53.586;10.040;2023-09-30T05:33:00;14.10;1.00
7564;DHT22;3823;53.586;10.040;2023-09-30T05:35:26;14.00;1.00
7564;DHT22;3823;53.586;10.040;2023-09-30T05:37:53;14.00;1.00
7564;DHT22;3823;53.586;10.040;2023-09-30T05:40:20;14.10;1.00
7564;DHT22;3823;53.586;10.040;2023-09-30T05:42:55;14.10;1.00
7564;DHT22;3823;53.586;10.040;2023-09-30T05:45:23;14.20;1.00
7564;DHT22;3823;53.586;10.040;2023-09-30T05:47:49;14.20;1.00
7564;DHT22;3823;53.586;10.040;2023-09-30T05:50:17;14.20;1.00
7564;DHT22;3823;53.586;10.040;2023-09-30T05:52:43;14.10;1.00
7564;DHT22;3823;53.586;10.040;2023-09-30T05:55:11;14.10;1.00
7564;DHT22;3823;53.586;10.040;2023-09-30T05:57:36;14.10;1.00
7564;DHT22;3823;53.586;10.040;2023-09-30T06:00:04;14.10;1.00
7564;DHT22;3823;53.586;10.040;2023-09-30T06:02:36;14.20;1.00
7564;DHT22;3823;53.586;10.040;2023-09-30T06:05:02;14.10;1.00
7564;DHT22;3823;53.586;10.040;2023-09-30T06:07:29;14.10;1.00
7564;DHT22;3823;53.586;10.040;2023-09-30T06:09:54;14.10;1.00
7564;DHT22;3823;53.586;10.040;2023-09-30T06:12:20;14.10;1.00
7564;DHT22;3823;53.586;10.040;2023-09-30T06:14:45;14.10;1.00
7564;DHT22;3823;53.586;10.040;2023-09-30T06:17:11;14.10;1.00
7564;DHT22;3823;53.586;10.040;2023-09-30T06:19:36;14.10;1.00
7564;DHT22;3823;53.586;10.040;2023-09-30T06:22:03;14.20;1.00
7564;DHT22;3823;53.586;10.040;2023-09-30T06:24:28;14.20;1.00
7564;DHT22;3823;53.586;10.040;2023-09-30T06:26:54;14.20;1.00
7564;DHT22;3823;53.586;10.040;2023-09-30T06:29:19;14.20;1.00
7564;DHT22;3823;53.586;10.040;2023-09-30T06:31:45;14.20;1.00
7564;DHT22;3823;53.586;10.040;2023-09-30T06:34:11;14.20;1.00
7564;DHT22;3823;53.586;10.040;2023-09-30T06:36:37;14.20;1.00
7564;DHT22;3823;53.586;10.040;2023-09-30T06:39:03;14.10;1.00
7564;DHT22;3823;53.586;10.040;2023-09-30T06:41:31;14.30;1.00
7564;DHT22;3823;53.586;10.040;2023-09-30T06:43:57;14.40;1.00
7564;DHT22;3823;53.586;10.040;2023-09-30T06:46:22;14.50;1.00
7564;DHT22;3823;53.586;10.040;2023-09-30T06:48:49;14.50;1.00
7564;DHT22;3823;53.586;10.040;2023-09-30T06:51:17;14.60;1.00
7564;DHT22;3823;53.586;10.040;2023-09-30T06:53:43;14.80;1.00
7564;DHT22;3823;53.586;10.040;2023-09-30T06:56:09;15.00;99.90
7564;DHT22;3823;53.586;10.040;2023-09-30T06:58:34;15.30;99.90
7564;DHT22;3823;53.586;10.040;2023-09-30T07:01:00;15.50;99.90
7564;DHT22;3823;53.586;10.040;2023-09-30T07:03:26;15.70;99.90
7564;DHT22;3823;53.586;10.040;2023-09-30T07:05:52;16.00;99.90
7564;DHT22;3823;53.586;10.040;2023-09-30T07:08:19;16.20;99.90
7564;DHT22;3823;53.586;10.040;2023-09-30T07:10:46;16.40;99.90
7564;DHT22;3823;53.586;10.040;2023-09-30T07:13:14;16.40;99.90
7564;DHT22;3823;53.586;10.040;2023-09-30T07:15:40;16.50;99.90
7564;DHT22;3823;53.586;10.040;2023-09-30T07:18:06;16.60;99.90
7564;DHT22;3823;53.586;10.040;2023-09-30T07:20:32;16.80;99.90
7564;DHT22;3823;53.586;10.040;2023-09-30T07:23:01;17.00;26.60
7564;DHT22;3823;53.586;10.040;2023-09-30T07:25:29;17.00;38.50
7564;DHT22;3823;53.586;10.040;2023-09-30T07:27:57;17.10;34.40
7564;DHT22;3823;53.586;10.040;2023-09-30T07:30:24;17.20;1.00
7564;DHT22;3823;53.586;10.040;2023-09-30T07:32:50;17.30;1.00
7564;DHT22;3823;53.586;10.040;2023-09-30T07:35:15;17.20;1.00
7564;DHT22;3823;53.586;10.040;2023-09-30T07:37:41;17.30;1.00
7564;DHT22;3823;53.586;10.040;2023-09-30T07:40:08;17.40;1.00
7564;DHT22;3823;53.586;10.040;2023-09-30T07:42:35;17.50;1.00
7564;DHT22;3823;53.586;10.040;2023-09-30T07:45:02;17.50;1.00
7564;DHT22;3823;53.586;10.040;2023-09-30T07:47:29;17.60;1.00
7564;DHT22;3823;53.586;10.040;2023-09-30T07:49:56;17.70;1.00
7564;DHT22;3823;53.586;10.040;2023-09-30T07:52:22;17.80;1.00
7564;DHT22;3823;53.586;10.040;2023-09-30T07:54:47;18.00;1.00
7564;DHT22;3823;53.586;10.040;2023-09-30T07:57:13;18.10;1.00
7564;DHT22;3823;53.586;10.040;2023-09-30T07:59:38;18.20;1.00
7564;DHT22;3823;53.586;10.040;2023-09-30T08:02:04;18.20;1.00
7564;DHT22;3823;53.586;10.040;2023-09-30T08:04:30;18.20;1.00
7564;DHT22;3823;53.586;10.040;2023-09-30T08:06:56;18.30;1.00
7564;DHT22;3823;53.586;10.040;2023-09-30T08:09:22;18.50;1.00
7564;DHT22;3823;53.586;10.040;2023-09-30T08:11:50;18.70;1.00
7564;DHT22;3823;53.586;10.040;2023-09-30T08:14:16;18.80;1.00
7564;DHT22;3823;53.586;10.040;2023-09-30T08:16:42;18.80;1.00
7564;DHT22;3823;53.586;10.040;2023-09-30T08:19:09;18.70;1.00
7564;DHT22;3823;53.586;10.040;2023-09-30T08:21:34;18.80;1.00
7564;DHT22;3823;53.586;10.040;2023-09-30T08:24:01;18.90;1.00
7564;DHT22;3823;53.586;10.040;2023-09-30T08:26:27;19.00;1.00
7564;DHT22;3823;53.586;10.040;2023-09-30T08:28:53;19.00;1.00
7564;DHT22;3823;53.586;10.040;2023-09-30T08:31:18;19.20;1.00
7564;DHT22;3823;53.586;10.040;2023-09-30T08:33:45;19.40;1.00
7564;DHT22;3823;53.586;10.040;2023-09-30T08:36:11;19.40;1.00
7564;DHT22;3823;53.586;10.040;2023-09-30T08:38:38;19.30;1.00
7564;DHT22;3823;53.586;10.040;2023-09-30T08:41:05;19.50;1.00
7564;DHT22;3823;53.586;10.040;2023-09-30T08:43:30;19.60;1.00
7564;DHT22;3823;53.586;10.040;2023-09-30T08:45:58;19.50;1.00
7564;DHT22;3823;53.586;10.040;2023-09-30T08:48:26;19.50;1.00
7564;DHT22;3823;53.586;10.040;2023-09-30T08:50:53;19.50;1.00
7564;DHT22;3823;53.586;10.040;2023-09-30T08:53:23;19.60;1.00
7564;DHT22;3823;53.586;10.040;2023-09-30T08:55:52;19.70;1.00
7564;DHT22;3823;53.586;10.040;2023-09-30T08:58:19;19.70;1.00
7564;DHT22;3823;53.586;10.040;2023-09-30T09:00:47;19.70;1.00
7564;DHT22;3823;53.586;10.040;2023-09-30T09:03:13;19.80;1.00
7564;DHT22;3823;53.586;10.040;2023-09-30T09:05:39;19.90;1.00
7564;DHT22;3823;53.586;10.040;2023-09-30T09:08:06;20.00;1.00
7564;DHT22;3823;53.586;10.040;2023-09-30T09:10:31;20.00;1.00
7564;DHT22;3823;53.586;10.040;2023-09-30T09:12:58;20.00;1.00
7564;DHT22;3823;53.586;10.040;2023-09-30T09:15:27;20.20;1.00
7564;DHT22;3823;53.586;10.040;2023-09-30T09:17:56;20.30;1.00
7564;DHT22;3823;53.586;10.040;2023-09-30T09:20:24;20.40;1.00
7564;DHT22;3823;53.586;10.040;2023-09-30T09:22:53;20.50;1.00
7564;DHT22;3823;53.586;10.040;2023-09-30T09:25:23;20.40;1.00
7564;DHT22;3823;53.586;10.040;2023-09-30T09:27:50;20.40;1.00
7564;DHT22;3823;53.586;10.040;2023-09-30T09:30:21;20.40;1.00
7564;DHT22;3823;53.586;10.040;2023-09-30T09:32:54;20.50;1.00
7564;DHT22;3823;53.586;10.040;2023-09-30T09:35:21;20.80;1.00
7564;DHT22;3823;53.586;10.040;2023-09-30T09:38:03;20.80;1.00
7564;DHT22;3823;53.586;10.040;2023-09-30T09:40:34;21.00;1.00
7564;DHT22;3823;53.586;10.040;2023-09-30T09:43:00;21.30;1.00
7564;DHT22;3823;53.586;10.040;2023-09-30T09:45:30;21.50;1.00
7564;DHT22;3823;53.586;10.040;2023-09-30T09:47:58;21.40;1.00
7564;DHT22;3823;53.586;10.040;2023-09-30T09:50:24;21.30;1.00
7564;DHT22;3823;53.586;10.040;2023-09-30T09:52:52;21.30;1.00
7564;DHT22;3823;53.586;10.040;2023-09-30T09:55:20;21.40;1.00
7564;DHT22;3823;53.586;10.040;2023-09-30T09:57:47;21.40;1.00
7564;DHT22;3823;53.586;10.040;2023-09-30T10:00:16;21.40;1.00
7564;DHT22;3823;53.586;10.040;2023-09-30T10:02:46;21.30;1.00
7564;DHT22;3823;53.586;10.040;2023-09-30T10:05:14;21.30;1.00
7564;DHT22;3823;53.586;10.040;2023-09-30T10:08:02;21.40;1.00
7564;DHT22;3823;53.586;10.040;2023-09-30T10:10:28;21.50;1.00
7564;DHT22;3823;53.586;10.040;2023-09-30T10:12:55;21.60;1.00
7564;DHT22;3823;53.586;10.040;2023-09-30T10:18:03;21.60;1.00
7564;DHT22;3823;53.586;10.040;2023-09-30T10:20:36;21.80;1.00
7564;DHT22;3823;53.586;10.040;2023-09-30T10:23:22;21.80;1.00
7564;DHT22;3823;53.586;10.040;2023-09-30T10:25:51;22.00;1.00
7564;DHT22;3823;53.586;10.040;2023-09-30T10:28:46;22.10;1.00
7564;DHT22;3823;53.586;10.040;2023-09-30T10:31:18;22.10;1.00
7564;DHT22;3823;53.586;10.040;2023-09-30T10:38:54;22.00;1.00
7564;DHT22;3823;53.586;10.040;2023-09-30T10:46:51;21.70;1.00
7564;DHT22;3823;53.586;10.040;2023-09-30T10:51:59;21.20;1.00
7564;DHT22;3823;53.586;10.040;2023-09-30T10:54:31;21.10;1.00
7564;DHT22;3823;53.586;10.040;2023-09-30T10:56:58;21.10;1.00
7564;DHT22;3823;53.586;10.040;2023-09-30T10:59:28;21.20;1.00
7564;DHT22;3823;53.586;10.040;2023-09-30T11:01:57;21.30;1.00
7564;DHT22;3823;53.586;10.040;2023-09-30T11:04:23;21.60;1.00
7564;DHT22;3823;53.586;10.040;2023-09-30T11:06:49;21.90;1.00
7564;DHT22;3823;53.586;10.040;2023-09-30T11:09:21;22.00;1.00
7564;DHT22;3823;53.586;10.040;2023-09-30T11:11:48;22.00;1.00
7564;DHT22;3823;53.586;10.040;2023-09-30T11:14:28;21.80;1.00
7564;DHT22;3823;53.586;10.040;2023-09-30T11:16:59;21.80;1.00
7564;DHT22;3823;53.586;10.040;2023-09-30T11:19:27;22.00;1.00
7564;DHT22;3823;53.586;10.040;2023-09-30T11:21:54;22.10;1.00
7564;DHT22;3823;53.586;10.040;2023-09-30T11:24:24;22.20;1.00
7564;DHT22;3823;53.586;10.040;2023-09-30T11:26:53;21.90;1.00
7564;DHT22;3823;53.586;10.040;2023-09-30T11:29:19;21.80;1.00
7564;DHT22;3823;53.586;10.040;2023-09-30T11:31:47;21.80;1.00
7564;DHT22;3823;53.586;10.040;2023-09-30T11:34:15;22.00;1.00
7564;DHT22;3823;53.586;10.040;2023-09-30T11:36:51;22.10;1.00
7564;DHT22;3823;53.586;10.040;2023-09-30T11:39:30;22.20;1.00
7564;DHT22;3823;53.586;10.040;2023-09-30T11:41:56;22.30;1.00
7564;DHT22;3823;53.586;10.040;2023-09-30T11:44:23;22.40;1.00
7564;DHT22;3823;53.586;10.040;2023-09-30T11:47:00;22.30;1.00
7564;DHT22;3823;53.586;10.040;2023-09-30T11:49:40;22.00;1.00
7564;DHT22;3823;53.586;10.040;2023-09-30T11:52:13;21.70;1.00
7564;DHT22;3823;53.586;10.040;2023-09-30T11:54:44;21.60;1.00
7564;DHT22;3823;53.586;10.040;2023-09-30T11:57:11;21.70;1.00
7564;DHT22;3823;53.586;10.040;2023-09-30T11:59:38;21.80;1.00
7564;DHT22;3823;53.586;10.040;2023-09-30T12:02:04;21.70;1.00
7564;DHT22;3823;53.586;10.040;2023-09-30T12:04:35;21.60;1.00
7564;DHT22;3823;53.586;10.040;2023-09-30T12:07:00;21.60;1.00
7564;DHT22;3823;53.586;10.040;2023-09-30T12:09:26;21.50;1.00
7564;DHT22;3823;53.586;10.040;2023-09-30T12:11:53;21.50;1.00
7564;DHT22;3823;53.586;10.040;2023-09-30T12:14:22;21.40;1.00
7564;DHT22;3823;53.586;10.040;2023-09-30T12:16:48;21.20;1.00
7564;DHT22;3823;53.586;10.040;2023-09-30T12:19:15;21.10;1.00
7564;DHT22;3823;53.586;10.040;2023-09-30T12:21:42;21.00;1.00
7564;DHT22;3823;53.586;10.040;2023-09-30T12:24:08;21.00;1.00
7564;DHT22;3823;53.586;10.040;2023-09-30T12:26:39;20.90;1.00
7564;DHT22;3823;53.586;10.040;2023-09-30T12:29:07;20.90;1.00
7564;DHT22;3823;53.586;10.040;2023-09-30T12:31:34;20.80;1.00
7564;DHT22;3823;53.586;10.040;2023-09-30T12:34:00;20.70;1.00
7564;DHT22;3823;53.586;10.040;2023-09-30T12:36:25;20.50;1.00
7564;DHT22;3823;53.586;10.040;2023-09-30T12:38:51;20.50;1.00
7564;DHT22;3823;53.586;10.040;2023-09-30T12:41:17;20.60;1.00
7564;DHT22;3823;53.586;10.040;2023-09-30T12:43:44;20.60;1.00
7564;DHT22;3823;53.586;10.040;2023-09-30T12:46:10;20.60;1.00
7564;DHT22;3823;53.586;10.040;2023-09-30T12:48:39;20.60;1.00
7564;DHT22;3823;53.586;10.040;2023-09-30T12:51:05;20.70;1.00
7564;DHT22;3823;53.586;10.040;2023-09-30T12:53:34;20.80;1.00
7564;DHT22;3823;53.586;10.040;2023-09-30T12:56:00;21.00;1.00
7564;DHT22;3823;53.586;10.040;2023-09-30T12:58:26;21.20;1.00
7564;DHT22;3823;53.586;10.040;2023-09-30T13:00:54;21.30;1.00
7564;DHT22;3823;53.586;10.040;2023-09-30T13:03:20;21.40;1.00
7564;DHT22;3823;53.586;10.040;2023-09-30T13:05:45;21.50;1.00
7564;DHT22;3823;53.586;10.040;2023-09-30T13:08:11;21.50;1.00
7564;DHT22;3823;53.586;10.040;2023-09-30T13:10:37;21.50;1.00
7564;DHT22;3823;53.586;10.040;2023-09-30T13:13:03;21.40;1.00
7564;DHT22;3823;53.586;10.040;2023-09-30T13:15:29;21.50;1.00
7564;DHT22;3823;53.586;10.040;2023-09-30T13:17:55;21.50;1.00
7564;DHT22;3823;53.586;10.040;2023-09-30T13:20:20;21.40;1.00
7564;DHT22;3823;53.586;10.040;2023-09-30T13:22:46;21.30;1.00
7564;DHT22;3823;53.586;10.040;2023-09-30T13:25:11;21.30;1.00
7564;DHT22;3823;53.586;10.040;2023-09-30T13:27:41;21.40;1.00
7564;DHT22;3823;53.586;10.040;2023-09-30T13:30:07;21.30;1.00
7564;DHT22;3823;53.586;10.040;2023-09-30T13:32:34;21.30;1.00
7564;DHT22;3823;53.586;10.040;2023-09-30T13:35:03;21.30;1.00
7564;DHT22;3823;53.586;10.040;2023-09-30T13:37:29;21.30;1.00
7564;DHT22;3823;53.586;10.040;2023-09-30T13:40:02;21.30;1.00
7564;DHT22;3823;53.586;10.040;2023-09-30T13:42:30;21.20;1.00
7564;DHT22;3823;53.586;10.040;2023-09-30T13:44:55;21.20;1.00
7564;DHT22;3823;53.586;10.040;2023-09-30T13:47:26;21.20;1.00
7564;DHT22;3823;53.586;10.040;2023-09-30T13:49:52;21.10;1.00
7564;DHT22;3823;53.586;10.040;2023-09-30T13:52:18;21.10;1.00
7564;DHT22;3823;53.586;10.040;2023-09-30T13:54:43;21.00;1.00
7564;DHT22;3823;53.586;10.040;2023-09-30T13:57:09;21.00;1.00
7564;DHT22;3823;53.586;10.040;2023-09-30T13:59:35;20.90;1.00
7564;DHT22;3823;53.586;10.040;2023-09-30T14:02:02;20.90;1.00
7564;DHT22;3823;53.586;10.040;2023-09-30T14:04:30;20.80;1.00
7564;DHT22;3823;53.586;10.040;2023-09-30T14:07:00;20.80;1.00
7564;DHT22;3823;53.586;10.040;2023-09-30T14:09:26;20.80;1.00
7564;DHT22;3823;53.586;10.040;2023-09-30T14:11:53;20.70;1.00
7564;DHT22;3823;53.586;10.040;2023-09-30T14:14:18;20.70;1.00
7564;DHT22;3823;53.586;10.040;2023-09-30T14:16:44;20.60;1.00
7564;DHT22;3823;53.586;10.040;2023-09-30T14:19:09;20.60;1.00
7564;DHT22;3823;53.586;10.040;2023-09-30T14:21:35;20.60;1.00
7564;DHT22;3823;53.586;10.040;2023-09-30T14:24:01;20.50;1.00
7564;DHT22;3823;53.586;10.040;2023-09-30T14:26:27;20.50;1.00
7564;DHT22;3823;53.586;10.040;2023-09-30T14:28:54;20.40;1.00
7564;DHT22;3823;53.586;10.040;2023-09-30T14:31:19;20.20;1.00
7564;DHT22;3823;53.586;10.040;2023-09-30T14:33:45;20.10;1.00
7564;DHT22;3823;53.586;10.040;2023-09-30T14:36:10;20.00;1.00
7564;DHT22;3823;53.586;10.040;2023-09-30T14:38:36;20.00;1.00
7564;DHT22;3823;53.586;10.040;2023-09-30T14:41:06;20.00;1.00
7564;DHT22;3823;53.586;10.040;2023-09-30T14:43:33;19.90;1.00
7564;DHT22;3823;53.586;10.040;2023-09-30T14:46:01;19.90;1.00
7564;DHT22;3823;53.586;10.040;2023-09-30T14:48:27;19.80;1.00
7564;DHT22;3823;53.586;10.040;2023-09-30T14:50:53;19.80;1.00
7564;DHT22;3823;53.586;10.040;2023-09-30T14:53:18;19.80;1.00
7564;DHT22;3823;53.586;10.040;2023-09-30T14:55:45;19.90;1.00
7564;DHT22;3823;53.586;10.040;2023-09-30T14:58:10;19.90;1.00
7564;DHT22;3823;53.586;10.040;2023-09-30T15:00:36;19.90;1.00
7564;DHT22;3823;53.586;10.040;2023-09-30T15:03:02;19.80;1.00
7564;DHT22;3823;53.586;10.040;2023-09-30T15:05:27;19.90;1.00
7564;DHT22;3823;53.586;10.040;2023-09-30T15:07:53;19.90;1.00
7564;DHT22;3823;53.586;10.040;2023-09-30T15:10:19;19.90;1.00
7564;DHT22;3823;53.586;10.040;2023-09-30T15:12:44;19.90;1.00
7564;DHT22;3823;53.586;10.040;2023-09-30T15:15:10;19.90;1.00
7564;DHT22;3823;53.586;10.040;2023-09-30T15:17:36;19.90;1.00
7564;DHT22;3823;53.586;10.040;2023-09-30T15:20:01;19.90;1.00
7564;DHT22;3823;53.586;10.040;2023-09-30T15:22:27;19.80;1.00
7564;DHT22;3823;53.586;10.040;2023-09-30T15:24:53;19.90;1.00
7564;DHT22;3823;53.586;10.040;2023-09-30T15:27:18;19.90;1.00
7564;DHT22;3823;53.586;10.040;2023-09-30T15:29:44;19.80;1.00
7564;DHT22;3823;53.586;10.040;2023-09-30T15:32:11;19.80;1.00
7564;DHT22;3823;53.586;10.040;2023-09-30T15:34:37;19.70;1.00
7564;DHT22;3823;53.586;10.040;2023-09-30T15:37:05;19.70;1.00
7564;DHT22;3823;53.586;10.040;2023-09-30T15:39:39;19.70;1.00
7564;DHT22;3823;53.586;10.040;2023-09-30T15:42:06;19.70;1.00
7564;DHT22;3823;53.586;10.040;2023-09-30T15:44:32;19.70;1.00
7564;DHT22;3823;53.586;10.040;2023-09-30T15:46:58;19.70;1.00
7564;DHT22;3823;53.586;10.040;2023-09-30T15:49:23;19.70;1.00
7564;DHT22;3823;53.586;10.040;2023-09-30T15:51:49;19.60;1.00
7564;DHT22;3823;53.586;10.040;2023-09-30T15:54:14;19.60;1.00
7564;DHT22;3823;53.586;10.040;2023-09-30T15:56:40;19.60;1.00
7564;DHT22;3823;53.586;10.040;2023-09-30T15:59:10;19.60;1.00
7564;DHT22;3823;53.586;10.040;2023-09-30T16:01:35;19.50;1.00
7564;DHT22;3823;53.586;10.040;2023-09-30T16:04:01;19.40;1.00
7564;DHT22;3823;53.586;10.040;2023-09-30T16:06:27;19.40;1.00
7564;DHT22;3823;53.586;10.040;2023-09-30T16:08:53;19.40;1.00
7564;DHT22;3823;53.586;10.040;2023-09-30T16:11:25;19.40;1.00
7564;DHT22;3823;53.586;10.040;2023-09-30T16:13:51;19.40;1.00
7564;DHT22;3823;53.586;10.040;2023-09-30T16:16:17;19.40;1.00